Time;durP1;ratioP1;P1;durP2;ratioP2;P2;SDS_P1;SDS_P2;PMS_P1;PMS_P2;Temp;Humidity;BMP_temperature;BMP_pressure;BME280_temperature;BME280_humidity;BME280_pressure;Samples;Min_cycle;Max_cycle;Signal;HPM_P1;HPM_P2
2023/06/28 00:00:52;;;;;;;2.22;1.15;;;19.50;99.90;;;19.90;93.98;101255.84;5223770;28;20045;-48
2023/06/28 00:03:25;;;;;;;1.40;0.90;;;19.50;99.90;;;19.85;93.81;101249.66;5223363;28;20643;-48
2023/06/28 00:05:59;;;;;;;2.88;0.93;;;19.40;99.90;;;19.83;94.12;101247.03;5223622;28;20115;-48
2023/06/28 00:08:31;;;;;;;2.08;1.02;;;19.40;99.90;;;19.78;94.06;101244.34;5223185;28;20055;-48
2023/06/28 00:11:03;;;;;;;1.75;0.93;;;19.40;99.90;;;19.73;93.60;101243.44;5222960;28;20041;-48
2023/06/28 00:13:39;;;;;;;1.75;1.00;;;19.30;99.90;;;19.70;93.10;101243.44;5223153;28;20064;-48
2023/06/28 00:16:14;;;;;;;3.00;1.02;;;19.30;99.90;;;19.64;92.98;101246.03;5223652;28;20051;-48
2023/06/28 00:18:47;;;;;;;2.55;0.85;;;19.20;99.90;;;19.60;93.22;101238.97;5222657;28;20053;-48
2023/06/28 00:21:22;;;;;;;2.28;1.20;;;19.20;99.90;;;19.54;92.97;101246.84;5223289;28;20037;-47
2023/06/28 00:23:55;;;;;;;2.75;1.23;;;19.10;99.90;;;19.52;92.72;101236.25;5223607;28;20155;-48
2023/06/28 00:26:28;;;;;;;1.88;1.10;;;19.10;99.90;;;19.51;92.76;101245.06;5223071;28;20099;-47
2023/06/28 00:29:00;;;;;;;1.38;1.08;;;19.10;99.90;;;19.51;92.74;101242.41;5223118;28;20040;-48
2023/06/28 00:31:35;;;;;;;1.75;1.05;;;19.10;99.90;;;19.50;92.16;101242.41;5223037;28;20049;-47
2023/06/28 00:34:08;;;;;;;1.83;1.38;;;19.10;99.90;;;19.46;91.96;101248.56;5223465;28;20488;-48
2023/06/28 00:36:41;;;;;;;2.05;1.13;;;19.10;99.90;;;19.45;92.38;101244.16;5222742;28;20045;-48
2023/06/28 00:39:14;;;;;;;1.95;1.02;;;19.00;99.90;;;19.44;92.48;101247.69;5222805;28;20518;-48
2023/06/28 00:41:50;;;;;;;2.47;1.00;;;19.00;99.90;;;19.43;92.39;101246.78;5222798;28;20048;-47
2023/06/28 00:44:22;;;;;;;1.48;1.00;;;19.00;99.90;;;19.40;92.23;101249.41;5223349;28;20956;-48
2023/06/28 00:46:56;;;;;;;2.25;1.20;;;19.00;99.90;;;19.42;92.32;101254.69;5222099;28;20152;-49
2023/06/28 00:49:35;;;;;;;2.53;0.95;;;19.00;99.90;;;19.41;91.83;101258.22;5222234;28;20041;-47
2023/06/28 00:52:13;;;;;;;1.50;0.90;;;19.00;99.90;;;19.41;92.06;101259.09;5222702;28;20037;-48
2023/06/28 00:54:46;;;;;;;3.67;1.20;;;19.00;99.90;;;19.47;92.44;101255.59;5224267;28;20048;-47
2023/06/28 00:57:19;;;;;;;2.08;1.35;;;19.00;99.90;;;19.51;92.65;101255.66;5222458;28;20049;-48
2023/06/28 00:59:56;;;;;;;1.73;1.05;;;19.10;99.90;;;19.57;92.67;101259.22;5222140;28;20140;-48
2023/06/28 01:02:30;;;;;;;2.47;1.02;;;19.10;99.90;;;19.60;93.14;101257.47;5220977;28;20068;-48
2023/06/28 01:05:03;;;;;;;1.98;0.88;;;19.20;99.90;;;19.64;92.88;101256.63;5221867;28;20048;-48
2023/06/28 01:07:43;;;;;;;2.05;1.10;;;19.20;99.90;;;19.65;92.43;101262.78;5221413;28;20118;-48
2023/06/28 01:10:18;;;;;;;2.08;1.10;;;19.20;99.90;;;19.61;91.06;101256.59;5222469;28;20443;-48
2023/06/28 01:12:51;;;;;;;2.28;0.90;;;19.20;99.90;;;19.55;90.93;101260.94;5221759;28;20091;-48
2023/06/28 01:15:23;;;;;;;1.25;1.02;;;19.10;99.90;;;19.50;90.72;101263.56;5222321;28;20060;-47
2023/06/28 01:18:00;;;;;;;1.88;0.90;;;19.10;99.90;;;19.48;90.83;101260.91;5221494;28;20055;-48
2023/06/28 01:20:33;;;;;;;1.33;0.70;;;19.10;99.90;;;19.49;91.02;101261.78;5221183;28;20041;-48
2023/06/28 01:23:07;;;;;;;1.20;1.10;;;19.10;99.90;;;19.50;90.89;101263.56;5221593;28;20386;-47
2023/06/28 01:25:39;;;;;;;1.80;0.88;;;19.00;99.90;;;19.52;90.83;101269.75;5222005;28;20041;-48
2023/06/28 01:28:13;;;;;;;1.83;1.00;;;19.10;99.90;;;19.51;90.84;101273.28;5221680;28;20037;-47
2023/06/28 01:30:48;;;;;;;2.00;0.90;;;19.10;99.90;;;19.51;90.76;101275.91;5221907;28;20084;-48
2023/06/28 01:33:21;;;;;;;2.55;0.95;;;19.10;99.90;;;19.51;90.24;101270.63;5221869;28;20041;-48
2023/06/28 01:35:53;;;;;;;1.40;0.88;;;19.10;99.90;;;19.52;90.28;101272.38;5222102;28;20059;-47
2023/06/28 01:38:28;;;;;;;1.52;0.90;;;19.10;99.90;;;19.56;90.03;101274.19;5221507;28;20040;-48
2023/06/28 01:41:01;;;;;;;1.30;1.00;;;19.10;99.90;;;19.57;90.14;101273.31;5214367;28;20037;-48
2023/06/28 01:43:33;;;;;;;2.28;1.00;;;19.10;99.90;;;19.57;89.90;101275.06;5221351;28;20060;-47
2023/06/28 01:46:06;;;;;;;3.05;1.10;;;19.10;99.90;;;19.55;89.88;101280.31;5221460;28;20041;-47
2023/06/28 01:48:38;;;;;;;1.58;0.90;;;19.10;99.90;;;19.55;89.94;101272.41;5221065;28;20060;-48
2023/06/28 01:51:14;;;;;;;1.83;0.70;;;19.10;99.90;;;19.51;89.45;101267.97;5221631;28;20033;-48
2023/06/28 01:53:49;;;;;;;1.00;0.77;;;19.10;99.80;;;19.50;88.98;101268.88;5221578;28;20155;-48
2023/06/28 01:56:21;;;;;;;1.08;0.80;;;19.10;99.60;;;19.48;88.57;101275.88;5221413;28;20528;-48
2023/06/28 01:58:54;;;;;;;1.98;0.80;;;19.10;99.50;;;19.45;88.27;101270.59;5221012;28;20505;-48
2023/06/28 02:01:26;;;;;;;1.55;1.02;;;19.10;99.30;;;19.42;87.98;101270.56;5221238;28;20045;-48
2023/06/28 02:04:01;;;;;;;1.92;1.10;;;19.00;99.20;;;19.42;87.91;101276.72;5221374;28;20053;-48
2023/06/28 02:06:34;;;;;;;1.00;0.80;;;19.00;99.20;;;19.46;87.78;101272.34;5220677;28;20056;-48
2023/06/28 02:09:08;;;;;;;2.30;0.93;;;19.00;99.20;;;19.48;87.78;101270.59;5220940;28;20140;-47
2023/06/28 02:11:43;;;;;;;1.95;0.85;;;19.00;99.10;;;19.48;87.50;101270.59;5221993;28;20056;-48
2023/06/28 02:14:15;;;;;;;2.85;1.20;;;19.10;99.10;;;19.44;87.20;101275.00;5221402;28;20049;-47
2023/06/28 02:16:48;;;;;;;1.90;1.00;;;19.00;98.90;;;19.40;87.40;101282.88;5220699;28;20053;-48
2023/06/28 02:19:20;;;;;;;2.63;0.93;;;19.00;98.90;;;19.38;87.21;101282.00;5220702;28;20068;-48
2023/06/28 02:21:53;;;;;;;3.65;1.10;;;19.00;98.90;;;19.37;87.09;101280.25;5220829;28;20045;-48
2023/06/28 02:24:27;;;;;;;4.30;1.35;;;19.00;98.80;;;19.38;86.74;101280.25;5221607;28;20048;-48
2023/06/28 02:26:59;;;;;;;2.92;0.75;;;18.90;98.70;;;19.36;86.16;101278.44;5220569;28;20044;-47
2023/06/28 02:29:32;;;;;;;2.45;1.00;;;19.00;98.50;;;19.34;86.10;101282.84;5220888;28;20398;-48
2023/06/28 02:32:07;;;;;;;1.77;0.90;;;19.00;98.50;;;19.32;86.45;101279.31;5220655;28;20053;-48
2023/06/28 02:34:40;;;;;;;2.30;1.00;;;18.90;98.50;;;19.30;86.42;101276.69;5220852;28;20049;-48
2023/06/28 02:37:13;;;;;;;2.70;0.90;;;18.90;98.50;;;19.27;86.59;101273.09;5220736;28;20101;-48
2023/06/28 02:39:50;;;;;;;2.72;0.85;;;18.80;98.50;;;19.23;86.77;101267.81;5220745;28;20041;-48
2023/06/28 02:42:22;;;;;;;1.75;0.90;;;18.80;98.60;;;19.20;87.38;101277.47;5220417;28;20045;-48
2023/06/28 02:44:55;;;;;;;1.85;1.20;;;18.80;98.80;;;19.19;87.32;101270.41;5220619;28;20049;-49
2023/06/28 02:47:27;;;;;;;1.50;1.25;;;18.80;98.90;;;19.16;87.28;101268.63;5220504;28;20620;-48
2023/06/28 02:50:04;;;;;;;1.50;0.90;;;18.80;98.90;;;19.12;87.29;101272.13;5220675;28;20501;-48
2023/06/28 02:52:38;;;;;;;2.78;0.90;;;18.70;98.80;;;19.06;87.30;101277.38;5220224;28;20478;-48
2023/06/28 02:55:15;;;;;;;1.88;1.00;;;18.70;98.80;;;19.03;87.36;101272.03;5220999;28;20135;-48
2023/06/28 02:57:52;;;;;;;2.42;1.05;;;18.60;98.80;;;19.01;87.80;101268.50;5219882;28;20098;-48
2023/06/28 03:00:25;;;;;;;1.23;0.88;;;18.60;98.90;;;18.99;87.99;101270.28;5220540;28;20044;-48
2023/06/28 03:02:57;;;;;;;1.73;0.70;;;18.60;99.00;;;18.96;89.01;101272.88;5220513;28;20047;-48
2023/06/28 03:05:31;;;;;;;1.83;0.73;;;18.60;99.30;;;18.93;89.50;101275.50;5220723;28;20045;-48
2023/06/28 03:08:05;;;;;;;2.17;1.00;;;18.50;99.50;;;18.89;90.15;101263.13;5213721;28;20045;-48
2023/06/28 03:10:38;;;;;;;2.90;0.88;;;18.50;99.70;;;18.86;90.51;101264.00;5220023;28;20049;-48
2023/06/28 03:13:11;;;;;;;0.98;0.80;;;18.50;99.90;;;18.83;91.23;101263.09;5220809;28;20037;-47
2023/06/28 03:15:43;;;;;;;1.02;0.70;;;18.50;99.90;;;18.81;91.86;101254.28;5220287;28;20076;-47
2023/06/28 03:18:19;;;;;;;0.85;0.70;;;18.40;99.90;;;18.75;92.93;101265.66;5220433;28;20044;-47
2023/06/28 03:20:52;;;;;;;2.67;0.88;;;18.40;99.90;;;18.70;93.60;101262.97;5220250;28;20054;-48
2023/06/28 03:23:24;;;;;;;1.95;0.85;;;18.30;99.90;;;18.65;94.30;101259.41;5220483;28;20055;-48
2023/06/28 03:25:58;;;;;;;1.77;0.82;;;18.30;99.90;;;18.62;94.91;101269.03;5220098;28;20069;-47
2023/06/28 03:28:30;;;;;;;1.55;1.45;;;18.30;99.90;;;18.59;95.78;101263.72;5220218;28;20040;-48
2023/06/28 03:31:03;;;;;;;1.70;0.88;;;18.20;99.90;;;18.55;96.34;101261.91;5220609;28;20045;-48
2023/06/28 03:33:37;;;;;;;1.77;1.00;;;18.10;99.90;;;18.51;96.89;101255.72;5220180;28;20071;-48
2023/06/28 03:36:11;;;;;;;1.48;0.88;;;18.10;99.90;;;18.49;97.92;101262.75;5220553;28;20563;-48
2023/06/28 03:38:43;;;;;;;1.70;1.40;;;18.10;99.90;;;18.46;98.18;101262.72;5219527;28;20414;-48
2023/06/28 03:41:17;;;;;;;1.88;1.10;;;18.10;99.90;;;18.43;98.39;101257.41;5220365;28;20044;-47
2023/06/28 03:43:53;;;;;;;1.55;0.90;;;18.00;99.90;;;18.41;98.94;101264.44;5220144;28;20501;-47
2023/06/28 03:46:25;;;;;;;2.15;0.90;;;18.00;99.90;;;18.39;99.05;101255.63;5223641;28;20140;-48
2023/06/28 03:48:58;;;;;;;1.33;0.95;;;18.00;99.90;;;18.40;98.02;101255.63;5223462;28;20715;-48
2023/06/28 03:51:30;;;;;;;1.73;1.02;;;18.00;99.90;;;18.43;97.62;101258.28;5223946;28;20069;-48
2023/06/28 03:54:06;;;;;;;2.50;1.23;;;18.00;99.90;;;18.46;97.88;101254.81;5223803;28;20491;-48
2023/06/28 03:56:40;;;;;;;1.50;0.90;;;18.10;99.90;;;18.46;98.61;101265.38;5223352;28;20052;-48
2023/06/28 03:59:12;;;;;;;2.05;0.85;;;18.10;99.90;;;18.46;99.25;101268.00;5223659;28;20078;-48
2023/06/28 04:01:44;;;;;;;2.67;1.20;;;18.10;99.90;;;18.46;98.95;101264.50;5223199;28;20059;-48
2023/06/28 04:04:17;;;;;;;1.65;0.93;;;18.10;99.90;;;18.48;99.41;101270.66;5223676;28;20413;-47
2023/06/28 04:06:49;;;;;;;2.30;1.02;;;18.10;99.90;;;18.50;100.00;101256.59;5223158;28;20049;-47
2023/06/28 04:09:22;;;;;;;1.00;0.80;;;18.10;99.90;;;18.53;100.00;101261.03;5223700;28;20049;-48
2023/06/28 04:11:56;;;;;;;1.38;0.82;;;18.10;99.90;;;18.54;100.00;101258.41;5223087;28;20049;-48
2023/06/28 04:14:28;;;;;;;1.15;0.98;;;18.10;99.90;;;18.59;100.00;101259.34;5223568;28;20068;-48
2023/06/28 04:17:00;;;;;;;1.42;0.80;;;18.20;99.90;;;18.63;99.66;101250.56;5222867;28;20048;-48
2023/06/28 04:19:33;;;;;;;1.92;0.80;;;18.20;99.90;;;18.65;99.33;101254.13;5223534;28;20135;-48
2023/06/28 04:22:08;;;;;;;3.05;1.02;;;18.20;99.90;;;18.68;99.00;101256.81;5222964;28;20048;-48
2023/06/28 04:24:40;;;;;;;1.30;0.90;;;18.30;99.90;;;18.71;98.78;101263.84;5223107;28;20056;-49
2023/06/28 04:27:14;;;;;;;1.65;1.00;;;18.30;99.90;;;18.73;98.59;101267.41;5223183;28;20053;-48
2023/06/28 04:29:46;;;;;;;1.58;0.90;;;18.30;99.90;;;18.77;98.37;101265.66;5222852;28;20051;-48
2023/06/28 04:32:24;;;;;;;2.42;0.80;;;18.30;99.90;;;18.79;98.17;101261.31;5223164;28;20494;-48
2023/06/28 04:34:58;;;;;;;2.28;1.40;;;18.40;99.90;;;18.82;98.56;101264.84;5222642;28;20428;-48
2023/06/28 04:37:31;;;;;;;1.23;0.73;;;18.40;99.90;;;18.85;97.79;101262.25;5222551;28;20041;-48
2023/06/28 04:40:05;;;;;;;1.35;0.95;;;18.40;99.90;;;18.89;96.74;101264.00;5222658;28;20498;-47
2023/06/28 04:42:39;;;;;;;1.90;0.80;;;18.50;99.90;;;18.93;96.65;101257.91;5222643;28;20509;-47
2023/06/28 04:45:11;;;;;;;1.20;1.10;;;18.50;99.90;;;18.97;96.31;101256.16;5222932;28;20409;-48
2023/06/28 04:47:44;;;;;;;1.15;0.90;;;18.60;99.90;;;19.01;96.36;101268.50;5222059;28;20048;-48
2023/06/28 04:50:16;;;;;;;2.17;1.00;;;18.60;99.90;;;19.03;96.58;101264.13;5222797;28;20045;-47
2023/06/28 04:52:49;;;;;;;1.20;0.95;;;18.60;99.90;;;19.07;96.19;101265.91;5222545;28;20045;-47
2023/06/28 04:55:21;;;;;;;1.55;1.00;;;18.70;99.90;;;19.12;94.42;101261.56;5222919;28;20098;-47
2023/06/28 04:57:55;;;;;;;3.92;1.00;;;18.70;99.90;;;19.18;93.73;101266.91;5221708;28;20056;-47
2023/06/28 05:00:28;;;;;;;2.05;0.98;;;18.70;99.90;;;19.28;93.14;101251.97;5222546;28;20052;-47
2023/06/28 05:03:01;;;;;;;1.45;1.00;;;18.90;99.90;;;19.39;92.12;101257.34;5222358;28;20037;-47
2023/06/28 05:05:34;;;;;;;2.08;1.00;;;18.90;99.90;;;19.46;90.81;101261.78;5222648;28;20476;-47
2023/06/28 05:08:07;;;;;;;2.85;0.90;;;19.00;99.90;;;19.53;90.25;101261.81;5221404;28;20498;-48
2023/06/28 05:10:40;;;;;;;2.55;1.10;;;19.10;99.90;;;19.62;89.78;101260.13;5221942;28;20059;-48
2023/06/28 05:13:13;;;;;;;2.20;1.00;;;19.10;99.90;;;19.71;89.04;101269.00;5222111;28;20041;-48
2023/06/28 05:15:46;;;;;;;1.20;0.90;;;19.20;99.90;;;19.75;88.64;101273.41;5221956;28;20192;-48
2023/06/28 05:18:19;;;;;;;1.25;0.90;;;19.30;99.90;;;19.79;88.38;101266.38;5221611;28;20048;-48
2023/06/28 05:20:52;;;;;;;1.50;0.80;;;19.30;99.90;;;19.85;88.64;101268.19;5236402;28;20041;-47
2023/06/28 05:23:25;;;;;;;2.05;1.05;;;19.40;99.90;;;19.88;88.76;101268.19;5220721;28;20043;-47
2023/06/28 05:25:58;;;;;;;1.88;1.08;;;19.40;99.90;;;19.91;88.12;101273.50;5221072;28;20045;-48
2023/06/28 05:28:34;;;;;;;1.05;0.93;;;19.40;99.70;;;19.94;87.74;101270.84;5221685;28;20045;-48
2023/06/28 05:31:07;;;;;;;1.60;1.08;;;19.50;99.60;;;19.98;87.83;101267.34;5220001;28;20051;-47
2023/06/28 05:33:40;;;;;;;2.95;1.00;;;19.50;99.60;;;20.03;87.62;101261.19;5220892;28;20049;-48
2023/06/28 05:36:13;;;;;;;2.17;0.95;;;19.50;99.50;;;20.07;88.22;101264.72;5214097;28;20149;-48
2023/06/28 05:38:46;;;;;;;1.80;1.00;;;19.60;99.70;;;20.10;88.81;101271.81;5220065;28;20543;-47
2023/06/28 05:41:18;;;;;;;1.98;1.20;;;19.60;99.80;;;20.10;89.58;101261.22;5220078;28;20531;-47
2023/06/28 05:43:52;;;;;;;1.20;0.90;;;19.60;99.90;;;20.10;90.06;101259.47;5221459;28;20044;-47
2023/06/28 05:46:28;;;;;;;1.13;0.93;;;19.70;99.90;;;20.12;90.88;101265.63;5220029;28;20049;-48
2023/06/28 05:49:01;;;;;;;1.70;1.10;;;19.70;99.90;;;20.16;91.99;101264.78;5220759;28;20055;-48
2023/06/28 05:51:34;;;;;;;3.08;1.30;;;19.70;99.90;;;20.21;92.43;101260.38;5221687;28;20238;-47
2023/06/28 05:54:09;;;;;;;1.83;1.10;;;19.70;99.90;;;20.25;92.65;101264.78;5220273;28;20094;-48
2023/06/28 05:56:41;;;;;;;3.20;1.30;;;19.80;99.90;;;20.30;92.64;101265.69;5217584;28;20056;-48
2023/06/28 05:59:15;;;;;;;2.80;1.30;;;19.80;99.90;;;20.37;91.95;101268.34;5220222;28;20056;-48
2023/06/28 06:01:47;;;;;;;3.78;1.30;;;19.80;99.90;;;20.40;91.47;101266.56;5220869;28;20051;-48
2023/06/28 06:04:20;;;;;;;3.28;1.17;;;19.90;99.90;;;20.45;91.64;101263.97;5219035;28;20045;-47
2023/06/28 06:06:52;;;;;;;2.25;1.27;;;19.90;99.90;;;20.47;91.42;101263.09;5221037;28;20049;-47
2023/06/28 06:09:26;;;;;;;2.95;1.23;;;20.00;99.90;;;20.50;90.11;101265.75;5220270;28;20064;-47
2023/06/28 06:11:58;;;;;;;1.70;1.30;;;20.00;99.90;;;20.49;89.58;101271.06;5221006;28;20309;-47
2023/06/28 06:14:33;;;;;;;3.85;1.15;;;20.00;99.90;;;20.47;90.30;101263.09;5221486;28;20052;-48
2023/06/28 06:17:06;;;;;;;2.33;1.10;;;20.00;99.90;;;20.45;90.73;101270.16;5220973;28;20525;-46
2023/06/28 06:19:39;;;;;;;1.98;1.10;;;20.00;99.90;;;20.42;91.25;101264.84;5221297;28;20413;-47
2023/06/28 06:22:11;;;;;;;1.63;1.38;;;19.90;99.90;;;20.37;90.28;101258.63;5218579;28;20457;-47
2023/06/28 06:24:44;;;;;;;2.72;1.05;;;19.90;99.90;;;20.37;89.75;101263.06;5220214;28;20144;-47
2023/06/28 06:27:16;;;;;;;2.78;1.40;;;19.90;99.90;;;20.39;89.81;101261.28;5220587;28;20406;-46
2023/06/28 06:29:50;;;;;;;1.52;1.27;;;19.90;99.90;;;20.37;89.34;101261.28;5220018;28;20498;-47
2023/06/28 06:32:22;;;;;;;2.60;1.30;;;19.90;99.90;;;20.33;89.51;101259.50;5221068;28;20048;-48
2023/06/28 06:34:57;;;;;;;3.65;1.30;;;19.80;99.90;;;20.38;90.06;101257.75;5220940;28;20052;-46
2023/06/28 06:37:30;;;;;;;2.97;1.35;;;19.90;99.90;;;20.58;89.35;101249.88;5220273;28;20045;-46
2023/06/28 06:40:02;;;;;;;3.13;1.60;;;20.10;99.90;;;20.76;88.21;101257.84;5220422;28;20053;-46
2023/06/28 06:42:38;;;;;;;3.05;1.48;;;20.30;99.50;;;20.90;87.15;101264.91;5220672;28;20060;-46
2023/06/28 06:45:16;;;;;;;5.20;1.83;;;20.40;99.10;;;20.99;86.50;101263.13;5220641;28;20106;-46
2023/06/28 06:47:49;;;;;;;5.68;1.98;;;20.60;98.70;;;21.07;85.58;101268.44;5220393;28;20049;-48
2023/06/28 06:50:21;;;;;;;4.05;1.60;;;20.60;98.30;;;21.22;84.74;101262.22;5220657;28;20491;-46
2023/06/28 06:52:54;;;;;;;4.05;1.58;;;20.80;98.10;;;21.38;84.22;101266.63;5220561;28;20048;-46
2023/06/28 06:55:26;;;;;;;2.25;1.40;;;20.90;97.90;;;21.49;83.81;101264.84;5220736;28;20049;-46
2023/06/28 06:57:58;;;;;;;3.35;1.55;;;21.00;97.70;;;21.61;83.67;101271.91;5220121;28;20057;-46
2023/06/28 07:00:32;;;;;;;3.30;1.30;;;21.10;97.70;;;21.71;83.29;101275.38;5220345;28;20041;-47
2023/06/28 07:03:04;;;;;;;3.50;1.20;;;21.20;97.50;;;21.84;82.79;101283.31;5220297;28;20049;-46
2023/06/28 07:05:37;;;;;;;3.55;1.48;;;21.30;97.30;;;21.92;82.26;101280.63;5220669;28;20414;-46
2023/06/28 07:08:09;;;;;;;3.85;1.50;;;21.40;97.10;;;21.95;81.67;101281.47;5219944;28;20551;-46
2023/06/28 07:10:41;;;;;;;4.20;1.30;;;21.40;96.90;;;22.00;81.68;101275.28;5220385;28;20065;-46
2023/06/28 07:13:15;;;;;;;3.95;1.55;;;21.40;96.90;;;22.06;81.85;101267.28;5220294;28;20053;-46
2023/06/28 07:15:49;;;;;;;2.40;1.50;;;21.50;96.90;;;22.05;80.56;101269.06;5220545;28;20079;-46
2023/06/28 07:18:21;;;;;;;2.58;1.20;;;21.50;96.50;;;22.02;80.05;101281.47;5220247;28;20501;-46
2023/06/28 07:20:53;;;;;;;3.58;1.45;;;21.50;96.20;;;21.92;79.66;101276.22;5222920;28;20509;-48
2023/06/28 07:23:26;;;;;;;5.32;1.90;;;21.40;95.90;;;21.89;79.04;101286.81;5225671;28;20040;-46
2023/06/28 07:25:58;;;;;;;2.20;1.23;;;21.40;95.70;;;21.83;78.28;101276.22;5224793;28;20044;-46
2023/06/28 07:28:30;;;;;;;2.53;1.50;;;21.30;95.40;;;21.81;78.10;101272.69;5222702;28;20382;-46
2023/06/28 07:31:04;;;;;;;3.10;1.60;;;21.30;95.40;;;21.87;78.40;101270.03;5222206;28;20049;-46
2023/06/28 07:33:36;;;;;;;2.75;1.20;;;21.30;95.50;;;21.94;78.97;101271.75;5220274;28;20056;-46
2023/06/28 07:36:09;;;;;;;3.67;1.40;;;21.30;95.70;;;22.00;78.59;101262.91;5222829;28;20052;-47
2023/06/28 07:38:41;;;;;;;2.38;1.30;;;21.40;95.70;;;22.01;77.64;101263.78;5223681;28;20045;-46
2023/06/28 07:41:14;;;;;;;2.35;1.20;;;21.40;95.30;;;21.95;77.94;101276.19;5222840;28;20531;-46
2023/06/28 07:43:46;;;;;;;4.32;1.35;;;21.40;95.30;;;21.88;77.61;101278.88;5218047;28;20127;-48
2023/06/28 07:46:20;;;;;;;3.00;1.50;;;21.30;95.10;;;21.84;77.27;101282.41;5228383;28;20517;-48
2023/06/28 07:48:52;;;;;;;2.63;1.25;;;21.20;94.90;;;21.79;77.24;101274.50;5223144;28;20585;-47
2023/06/28 07:51:25;;;;;;;2.05;0.93;;;21.20;94.90;;;21.76;77.16;101277.13;5221660;28;20068;-47
2023/06/28 07:53:57;;;;;;;3.38;1.30;;;21.20;94.80;;;21.71;77.10;101268.31;5216171;28;20132;-47
2023/06/28 07:56:29;;;;;;;2.17;1.10;;;21.10;94.70;;;21.65;77.72;101274.53;5223186;28;20102;-47
2023/06/28 07:59:05;;;;;;;2.35;0.90;;;21.10;94.90;;;21.60;77.58;101270.13;5223348;28;20045;-47
2023/06/28 08:01:38;;;;;;;2.65;1.52;;;21.10;94.90;;;21.56;77.06;101276.31;5223973;28;20481;-47
2023/06/28 08:04:11;;;;;;;2.33;1.10;;;21.00;94.60;;;21.50;76.88;101273.69;5223633;28;20041;-47
2023/06/28 08:06:46;;;;;;;1.98;1.10;;;20.90;94.50;;;21.48;77.59;101278.13;5218905;28;20053;-46
2023/06/28 08:09:19;;;;;;;7.10;1.23;;;21.00;94.90;;;21.56;77.76;101282.50;5214925;28;20045;-46
2023/06/28 08:11:51;;;;;;;4.13;1.40;;;21.00;94.90;;;21.64;78.14;101286.00;5221798;28;20059;-46
2023/06/28 08:14:28;;;;;;;2.92;0.90;;;21.10;95.10;;;21.77;78.54;101286.84;5221619;28;20436;-46
2023/06/28 08:17:02;;;;;;;2.33;0.80;;;21.20;95.20;;;21.83;78.30;101281.53;5222280;28;20052;-47
2023/06/28 08:19:34;;;;;;;3.90;1.10;;;21.30;95.00;;;21.87;78.59;101283.28;5220460;28;20084;-47
2023/06/28 08:22:06;;;;;;;3.70;1.40;;;21.40;95.10;;;21.93;79.11;101280.63;5222486;28;20049;-47
2023/06/28 08:24:39;;;;;;;3.63;1.17;;;21.40;95.30;;;22.01;79.59;101282.34;5223470;28;20053;-47
2023/06/28 08:27:11;;;;;;;1.85;1.17;;;21.50;95.50;;;22.00;78.90;101275.28;5222329;28;20410;-47
2023/06/28 08:29:44;;;;;;;2.58;1.05;;;21.50;95.10;;;21.97;77.97;101278.81;5223633;28;20048;-47
2023/06/28 08:32:18;;;;;;;2.25;0.90;;;21.50;94.80;;;21.95;77.16;101278.84;5220039;28;20124;-47
2023/06/28 08:34:50;;;;;;;2.92;1.10;;;21.40;94.50;;;21.98;77.83;101279.72;5222777;28;20056;-47
2023/06/28 08:37:23;;;;;;;2.65;1.23;;;21.40;94.70;;;22.10;78.15;101279.69;5222206;28;20051;-46
2023/06/28 08:39:55;;;;;;;2.70;1.20;;;21.50;94.80;;;22.23;77.43;101294.66;5222508;28;20056;-47
2023/06/28 08:42:30;;;;;;;2.72;1.10;;;21.60;94.70;;;22.24;75.87;101283.16;5222764;28;20052;-47
2023/06/28 08:45:03;;;;;;;;;;;21.60;94.10;;;22.28;75.92;101278.72;5221139;28;20094;-47
2023/06/28 08:47:39;;;;;;;1.52;1.10;;;21.70;94.00;;;22.38;75.48;101291.06;5221609;28;19925;-47
2023/06/28 08:50:13;;;;;;;1.92;0.90;;;21.70;93.80;;;22.43;72.86;101287.47;5216566;28;20033;-46
2023/06/28 08:52:52;;;;;;;3.88;1.00;;;21.80;93.00;;;22.46;70.96;101292.75;5223221;28;20037;-46
2023/06/28 08:55:25;;;;;;;2.47;1.23;;;21.80;92.10;;;22.47;69.97;101290.97;5215257;28;20041;-46
2023/06/28 08:57:59;;;;;;;1.63;0.80;;;21.80;91.60;;;22.50;69.89;101290.09;5222328;28;20064;-46
2023/06/28 09:00:31;;;;;;;2.97;1.33;;;21.80;91.50;;;22.54;70.71;101281.19;5214682;28;20049;-46
2023/06/28 09:03:05;;;;;;;4.60;1.17;;;21.90;91.70;;;22.56;71.15;101285.63;5222871;28;20053;-46
2023/06/28 09:05:38;;;;;;;2.08;1.23;;;21.90;91.90;;;22.52;71.22;101289.19;5222959;28;20092;-46
2023/06/28 09:08:10;;;;;;;3.38;1.30;;;21.90;91.90;;;22.47;71.45;101286.56;5214412;28;20788;-46
2023/06/28 09:10:43;;;;;;;3.20;1.13;;;21.90;91.90;;;22.49;70.00;101283.88;5222678;28;20042;-46
2023/06/28 09:13:19;;;;;;;2.15;0.90;;;21.80;91.40;;;22.52;70.19;101291.84;5223058;28;20044;-46
2023/06/28 09:15:52;;;;;;;2.70;1.23;;;21.90;91.30;;;22.59;70.87;101292.69;5222395;28;20132;-46
2023/06/28 09:18:25;;;;;;;3.60;1.50;;;21.90;91.50;;;22.62;71.22;101287.34;5222512;28;20498;-46
2023/06/28 09:21:01;;;;;;;2.65;1.00;;;22.00;91.70;;;22.63;71.58;101291.78;5223060;28;20060;-46
2023/06/28 09:23:35;;;;;;;3.22;0.90;;;22.00;91.80;;;22.67;71.88;101288.19;5222824;28;20045;-46
2023/06/28 09:26:11;;;;;;;2.28;1.10;;;22.00;91.90;;;22.68;71.88;101297.94;5222495;28;20059;-46
2023/06/28 09:28:47;;;;;;;3.97;1.42;;;22.00;92.00;;;22.65;71.59;101296.19;5222470;28;20103;-46
2023/06/28 09:31:19;;;;;;;1.70;1.00;;;22.00;91.80;;;22.64;71.74;101298.84;5222416;28;20047;-46
2023/06/28 09:33:55;;;;;;;2.70;1.00;;;22.00;91.80;;;22.69;72.06;101297.94;5222401;28;20045;-46
2023/06/28 09:36:29;;;;;;;4.85;1.35;;;22.00;91.90;;;22.73;71.46;101288.16;5222324;28;20060;-47
2023/06/28 09:39:04;;;;;;;4.88;1.60;;;22.10;91.80;;;22.75;71.31;101286.34;5222269;28;20383;-46
2023/06/28 09:41:40;;;;;;;5.35;1.35;;;22.10;91.70;;;22.75;71.58;101286.34;5216456;28;20099;-46
2023/06/28 09:44:13;;;;;;;1.38;1.20;;;22.10;91.70;;;22.74;72.09;101289.91;5233561;28;20049;-46
2023/06/28 09:46:47;;;;;;;2.03;1.20;;;22.10;91.80;;;22.77;72.21;101281.06;5221557;28;20048;-46
2023/06/28 09:49:25;;;;;;;4.30;1.20;;;22.20;91.90;;;22.73;71.64;101282.84;5220445;28;20510;-46
2023/06/28 09:52:01;;;;;;;1.55;1.02;;;22.10;91.70;;;22.71;71.63;101284.63;5221027;28;20059;-46
2023/06/28 09:54:40;;;;;;;2.78;1.25;;;22.10;91.70;;;22.67;71.94;101288.19;5221749;28;20147;-46
2023/06/28 09:57:13;;;;;;;2.40;1.63;;;22.10;91.70;;;22.66;71.79;101297.06;5221609;28;20064;-46
2023/06/28 09:59:47;;;;;;;2.90;1.10;;;22.10;91.60;;;22.59;71.31;101295.34;5213452;28;20456;-46
2023/06/28 10:02:23;;;;;;;4.40;1.35;;;22.00;91.40;;;22.55;71.36;101285.63;5221460;28;20501;-46
2023/06/28 10:05:03;;;;;;;3.92;1.30;;;22.00;91.40;;;22.59;71.74;101290.91;5221538;28;20044;-46
2023/06/28 10:07:36;;;;;;;2.92;1.40;;;22.00;91.60;;;22.70;72.06;101293.50;5221207;28;20055;-46
2023/06/28 10:10:10;;;;;;;2.83;1.20;;;22.10;91.70;;;22.81;71.44;101283.66;5213239;28;20086;-46
2023/06/28 10:12:45;;;;;;;2.90;1.42;;;22.10;91.50;;;22.86;70.53;101289.84;5221216;28;20044;-46
2023/06/28 10:15:24;;;;;;;3.15;1.55;;;22.10;91.20;;;22.89;70.42;101289.84;5221530;28;20041;-46
2023/06/28 10:17:57;;;;;;;4.78;1.83;;;22.20;91.10;;;22.92;70.57;101295.13;5227114;28;20049;-46
2023/06/28 10:20:31;;;;;;;2.58;1.30;;;22.20;91.10;;;22.97;70.36;101297.75;5220149;28;20045;-46
2023/06/28 10:23:07;;;;;;;3.17;1.42;;;22.30;91.00;;;23.00;69.77;101293.28;5213520;28;20528;-46
2023/06/28 10:25:41;;;;;;;3.50;1.30;;;22.30;90.80;;;23.05;69.61;101289.69;5218163;28;20055;-46
2023/06/28 10:28:14;;;;;;;3.95;1.60;;;22.40;90.70;;;23.05;69.19;101295.03;5208729;28;20472;-46
2023/06/28 10:30:52;;;;;;;4.25;1.65;;;22.40;90.50;;;23.05;69.23;101289.69;5220881;28;20045;-46
2023/06/28 10:33:26;;;;;;;4.18;1.55;;;22.40;90.40;;;23.05;69.91;101300.34;5212891;28;20048;-46
2023/06/28 10:36:00;;;;;;;2.40;1.50;;;22.40;90.60;;;23.06;70.71;101292.34;5219818;28;20731;-46
2023/06/28 10:38:33;;;;;;;2.33;1.30;;;22.40;90.90;;;23.13;71.11;101295.81;5219635;28;20114;-46